Thursday, January 17, 2019, 8:21 PM EST
Back to Local

KWRI, Mcguire Air Force Base

Location: Trenton, NJ, United States Lat: 40.017
Local Time: 8:21 PM EST ( 1:21 GMT) Lon: -74.6
Time Zone: US/Eastern Elev: 134 ft

Show me the last for .
Show Decoded

2019-01-17 19:56 METAR KWRI 180056Z AUTO 06005KT 10SM OVC110 M03/M07 A3025 RMK AO2 SLP245
                 T10291072 $ =
2019-01-17 18:56 METAR KWRI 172356Z AUTO 04003KT 10SM OVC110 M03/M07 A3027 RMK AO2 SLP252
                 T10261073 10009 21029 57003 $ =
2019-01-17 17:56 METAR KWRI 172256Z AUTO 04003KT 10SM BKN120 M03/M08 A3027 RMK AO2 SLP252
                 T10271080 $ =
2019-01-17 16:56 METAR KWRI 172156Z AUTO 11004KT 10SM OVC130 M01/M08 A3027 RMK AO2 SLP252
                 T10121084 $ =
2019-01-17 15:56 METAR KWRI 172056Z AUTO 11009KT 10SM BKN140 00/M09 A3028 RMK AO2 SLP255
                 T10051094 55013 $ =
2019-01-17 14:56 METAR KWRI 171956Z AUTO 08007KT 10SM BKN130 01/M13 A3027 RMK AO2 SLP252
                 T00051132 $ =
2019-01-17 13:56 METAR KWRI 171856Z AUTO 18004KT 10SM OVC150 01/M16 A3031 RMK AO2 SLP265
                 T00051159 $ =
2019-01-17 12:56 METAR KWRI 171756Z AUTO 01004KT 10SM BKN160 00/M15 A3032 RMK AO2 SLP268
                 T00031153 10004 21055 58021 $ =
2019-01-17 11:56 METAR KWRI 171656Z AUTO 01004KT 10SM BKN160 BKN180 00/M16 A3036 RMK AO2 SLP282
                 T10011156 $ =
2019-01-17 10:56 METAR KWRI 171556Z AUTO 01005KT 10SM CLR M01/M15 A3039 RMK AO2 SLP292 T10071146
                 $ =
2019-01-17 09:56 METAR KWRI 171456Z AUTO 35006KT 10SM FEW160 M02/M15 A3038 RMK AO2 SLP289
                 T10161154 52015 $ =
2019-01-17 08:56 METAR KWRI 171356Z AUTO 36009KT 10SM FEW160 M03/M15 A3037 RMK AO2 SLP286
                 T10271151 $ =
2019-01-17 07:56 METAR KWRI 171256Z AUTO 36006KT 10SM SCT160 M04/M12 A3036 RMK AO2 SLP282
                 T10441123 $ =
2019-01-17 06:56 METAR KWRI 171156Z AUTO 03005KT 10SM CLR M05/M11 A3034 RMK AO2 SLP275 T10501106
                 10001 21050 52020 $ =
2019-01-17 05:56 METAR KWRI 171056Z AUTO 01008KT 10SM CLR M03/M10 A3032 RMK AO2 SLP268 T10311098
                 $ =
2019-01-17 04:56 METAR KWRI 170956Z AUTO 02008KT 10SM CLR M03/M09 A3030 RMK AO2 SLP262 T10281091
                 $ =
2019-01-17 03:56 METAR KWRI 170856Z AUTO 03009KT 10SM CLR M02/M08 A3028 RMK AO2 SLP255 T10171085
                 51016 $ =
2019-01-17 02:56 METAR KWRI 170756Z AUTO 34004KT 10SM CLR M02/M09 A3028 RMK AO2 SLP255 T10161088
                 $ =
2019-01-17 01:56 METAR KWRI 170656Z AUTO 33005KT 10SM CLR M01/M09 A3026 RMK AO2 SLP248 T10101087
                 $ =
2019-01-17 00:56 METAR KWRI 170556Z AUTO 29004KT 10SM CLR 00/M05 A3023 RMK AO2 SLP238 T10011053
                 10023 21001 52016 $ =
2019-01-16 23:56 METAR KWRI 170456Z AUTO 28004KT 10SM OVC048 02/M05 A3022 RMK AO2 SLP234
                 T00151052 400311066 $ =
2019-01-16 22:56 METAR KWRI 170356Z AUTO 28005KT 10SM OVC048 01/M05 A3020 RMK AO2 SLP228
                 T00141053 $ =
2019-01-16 21:56 METAR KWRI 170256Z AUTO 28005KT 10SM OVC055 01/M05 A3018 RMK AO2 SLP221
                 T00141055 52016 $ =
2019-01-16 20:56 METAR KWRI 170156Z AUTO 28005KT 10SM FEW055 02/M06 A3016 RMK AO2 SLP214
                 T00151056 $ =

Support USWX by starting your Amazon purchase here.